sensor_id;sensor_type;location;lat;lon;timestamp;P1;durP1;ratioP1;P2;durP2;ratioP2
10497;SDS011;5296;51.060;13.750;2023-07-29T00:04:48;2.17;;;1.80;;
10497;SDS011;5296;51.060;13.750;2023-07-29T00:09:50;2.35;;;2.00;;
10497;SDS011;5296;51.060;13.750;2023-07-29T00:14:52;2.38;;;1.80;;
10497;SDS011;5296;51.060;13.750;2023-07-29T00:19:54;2.95;;;1.90;;
10497;SDS011;5296;51.060;13.750;2023-07-29T00:24:56;5.20;;;1.85;;
10497;SDS011;5296;51.060;13.750;2023-07-29T00:29:58;2.67;;;1.65;;
10497;SDS011;5296;51.060;13.750;2023-07-29T00:35:00;4.03;;;2.00;;
10497;SDS011;5296;51.060;13.750;2023-07-29T00:40:02;3.60;;;1.85;;
10497;SDS011;5296;51.060;13.750;2023-07-29T00:45:05;1.80;;;1.70;;
10497;SDS011;5296;51.060;13.750;2023-07-29T00:50:09;2.63;;;1.73;;
10497;SDS011;5296;51.060;13.750;2023-07-29T00:55:12;1.88;;;1.63;;
10497;SDS011;5296;51.060;13.750;2023-07-29T01:00:15;1.73;;;1.60;;
10497;SDS011;5296;51.060;13.750;2023-07-29T01:05:17;1.80;;;1.70;;
10497;SDS011;5296;51.060;13.750;2023-07-29T01:15:42;4.10;;;1.75;;
10497;SDS011;5296;51.060;13.750;2023-07-29T01:20:47;2.00;;;1.88;;
10497;SDS011;5296;51.060;13.750;2023-07-29T01:25:49;1.60;;;1.50;;
10497;SDS011;5296;51.060;13.750;2023-07-29T01:30:52;1.77;;;1.67;;
10497;SDS011;5296;51.060;13.750;2023-07-29T01:36:08;3.00;;;1.60;;
10497;SDS011;5296;51.060;13.750;2023-07-29T01:41:14;2.05;;;1.85;;
10497;SDS011;5296;51.060;13.750;2023-07-29T01:46:16;2.00;;;1.80;;
10497;SDS011;5296;51.060;13.750;2023-07-29T01:51:18;1.63;;;1.52;;
10497;SDS011;5296;51.060;13.750;2023-07-29T01:56:20;3.15;;;1.75;;
10497;SDS011;5296;51.060;13.750;2023-07-29T02:01:28;1.50;;;1.40;;
10497;SDS011;5296;51.060;13.750;2023-07-29T02:06:30;2.92;;;1.50;;
10497;SDS011;5296;51.060;13.750;2023-07-29T02:11:32;2.08;;;1.60;;
10497;SDS011;5296;51.060;13.750;2023-07-29T02:16:33;1.83;;;1.70;;
10497;SDS011;5296;51.060;13.750;2023-07-29T02:21:36;1.63;;;1.52;;
10497;SDS011;5296;51.060;13.750;2023-07-29T02:26:38;1.67;;;1.55;;
10497;SDS011;5296;51.060;13.750;2023-07-29T02:31:40;2.00;;;1.80;;
10497;SDS011;5296;51.060;13.750;2023-07-29T02:36:42;2.38;;;1.70;;
10497;SDS011;5296;51.060;13.750;2023-07-29T02:41:43;1.98;;;1.67;;
10497;SDS011;5296;51.060;13.750;2023-07-29T02:46:45;1.80;;;1.70;;
10497;SDS011;5296;51.060;13.750;2023-07-29T02:51:47;2.97;;;1.80;;
10497;SDS011;5296;51.060;13.750;2023-07-29T02:56:49;2.65;;;1.70;;
10497;SDS011;5296;51.060;13.750;2023-07-29T03:01:52;2.10;;;1.70;;
10497;SDS011;5296;51.060;13.750;2023-07-29T03:06:54;1.80;;;1.70;;
10497;SDS011;5296;51.060;13.750;2023-07-29T03:11:56;1.73;;;1.63;;
10497;SDS011;5296;51.060;13.750;2023-07-29T03:16:58;1.98;;;1.88;;
10497;SDS011;5296;51.060;13.750;2023-07-29T03:22:04;1.80;;;1.65;;
10497;SDS011;5296;51.060;13.750;2023-07-29T03:27:05;1.90;;;1.80;;
10497;SDS011;5296;51.060;13.750;2023-07-29T03:32:08;1.88;;;1.67;;
10497;SDS011;5296;51.060;13.750;2023-07-29T03:37:09;1.98;;;1.40;;
10497;SDS011;5296;51.060;13.750;2023-07-29T03:42:11;2.05;;;1.30;;
10497;SDS011;5296;51.060;13.750;2023-07-29T03:47:13;1.42;;;1.33;;
10497;SDS011;5296;51.060;13.750;2023-07-29T03:52:17;1.92;;;1.55;;
10497;SDS011;5296;51.060;13.750;2023-07-29T03:57:18;1.60;;;1.50;;
10497;SDS011;5296;51.060;13.750;2023-07-29T04:02:20;1.50;;;1.40;;
10497;SDS011;5296;51.060;13.750;2023-07-29T04:07:22;1.60;;;1.50;;
10497;SDS011;5296;51.060;13.750;2023-07-29T04:12:24;1.50;;;1.40;;
10497;SDS011;5296;51.060;13.750;2023-07-29T04:17:26;1.65;;;1.50;;
10497;SDS011;5296;51.060;13.750;2023-07-29T04:22:27;3.70;;;1.60;;
10497;SDS011;5296;51.060;13.750;2023-07-29T04:27:29;1.60;;;1.30;;
10497;SDS011;5296;51.060;13.750;2023-07-29T04:32:31;3.33;;;1.30;;
10497;SDS011;5296;51.060;13.750;2023-07-29T04:37:33;1.27;;;1.17;;
10497;SDS011;5296;51.060;13.750;2023-07-29T04:42:36;1.13;;;1.13;;
10497;SDS011;5296;51.060;13.750;2023-07-29T04:47:38;1.42;;;1.33;;
10497;SDS011;5296;51.060;13.750;2023-07-29T04:52:40;1.33;;;1.17;;
10497;SDS011;5296;51.060;13.750;2023-07-29T04:57:41;1.30;;;1.20;;
10497;SDS011;5296;51.060;13.750;2023-07-29T05:02:43;1.38;;;1.27;;
10497;SDS011;5296;51.060;13.750;2023-07-29T05:07:45;1.40;;;1.30;;
10497;SDS011;5296;51.060;13.750;2023-07-29T05:12:47;1.45;;;1.35;;
10497;SDS011;5296;51.060;13.750;2023-07-29T05:17:48;1.75;;;1.38;;
10497;SDS011;5296;51.060;13.750;2023-07-29T05:22:50;1.30;;;1.20;;
10497;SDS011;5296;51.060;13.750;2023-07-29T05:27:52;1.83;;;1.30;;
10497;SDS011;5296;51.060;13.750;2023-07-29T05:32:54;1.10;;;1.10;;
10497;SDS011;5296;51.060;13.750;2023-07-29T05:37:55;1.20;;;1.10;;
10497;SDS011;5296;51.060;13.750;2023-07-29T05:42:57;1.15;;;1.15;;
10497;SDS011;5296;51.060;13.750;2023-07-29T05:47:59;2.38;;;1.20;;
10497;SDS011;5296;51.060;13.750;2023-07-29T05:53:02;1.90;;;1.20;;
10497;SDS011;5296;51.060;13.750;2023-07-29T05:58:04;0.93;;;0.93;;
10497;SDS011;5296;51.060;13.750;2023-07-29T06:03:05;0.90;;;0.90;;
10497;SDS011;5296;51.060;13.750;2023-07-29T06:08:07;1.30;;;1.20;;
10497;SDS011;5296;51.060;13.750;2023-07-29T06:13:10;3.10;;;1.02;;
10497;SDS011;5296;51.060;13.750;2023-07-29T06:18:12;1.50;;;1.15;;
10497;SDS011;5296;51.060;13.750;2023-07-29T06:23:14;2.03;;;1.15;;
10497;SDS011;5296;51.060;13.750;2023-07-29T06:28:15;1.45;;;1.00;;
10497;SDS011;5296;51.060;13.750;2023-07-29T06:33:17;1.90;;;1.00;;
10497;SDS011;5296;51.060;13.750;2023-07-29T06:38:19;1.20;;;1.10;;
10497;SDS011;5296;51.060;13.750;2023-07-29T06:43:23;0.90;;;0.90;;
10497;SDS011;5296;51.060;13.750;2023-07-29T06:48:24;1.17;;;1.13;;
10497;SDS011;5296;51.060;13.750;2023-07-29T06:53:26;1.10;;;1.10;;
10497;SDS011;5296;51.060;13.750;2023-07-29T06:58:28;2.08;;;1.20;;
10497;SDS011;5296;51.060;13.750;2023-07-29T07:03:30;4.18;;;1.42;;
10497;SDS011;5296;51.060;13.750;2023-07-29T07:08:32;0.98;;;0.98;;
10497;SDS011;5296;51.060;13.750;2023-07-29T07:13:34;1.20;;;1.20;;
10497;SDS011;5296;51.060;13.750;2023-07-29T07:18:35;1.20;;;1.10;;
10497;SDS011;5296;51.060;13.750;2023-07-29T07:23:38;1.50;;;1.08;;
10497;SDS011;5296;51.060;13.750;2023-07-29T07:28:40;1.10;;;1.10;;
10497;SDS011;5296;51.060;13.750;2023-07-29T07:33:42;1.20;;;1.15;;
10497;SDS011;5296;51.060;13.750;2023-07-29T07:38:44;1.30;;;1.20;;
10497;SDS011;5296;51.060;13.750;2023-07-29T07:43:45;1.50;;;1.40;;
10497;SDS011;5296;51.060;13.750;2023-07-29T07:48:47;1.48;;;1.27;;
10497;SDS011;5296;51.060;13.750;2023-07-29T07:53:49;1.27;;;1.17;;
10497;SDS011;5296;51.060;13.750;2023-07-29T07:58:50;1.08;;;1.08;;
10497;SDS011;5296;51.060;13.750;2023-07-29T08:03:52;1.20;;;1.10;;
10497;SDS011;5296;51.060;13.750;2023-07-29T08:08:54;1.00;;;1.00;;
10497;SDS011;5296;51.060;13.750;2023-07-29T08:13:56;0.88;;;0.88;;
10497;SDS011;5296;51.060;13.750;2023-07-29T08:18:57;1.10;;;1.10;;
10497;SDS011;5296;51.060;13.750;2023-07-29T08:23:59;1.10;;;1.10;;
10497;SDS011;5296;51.060;13.750;2023-07-29T08:29:01;2.38;;;1.10;;
10497;SDS011;5296;51.060;13.750;2023-07-29T08:34:02;1.00;;;1.00;;
10497;SDS011;5296;51.060;13.750;2023-07-29T08:39:04;1.25;;;1.00;;
10497;SDS011;5296;51.060;13.750;2023-07-29T08:49:18;0.82;;;0.77;;
10497;SDS011;5296;51.060;13.750;2023-07-29T08:54:20;1.00;;;1.00;;
10497;SDS011;5296;51.060;13.750;2023-07-29T08:59:22;1.00;;;1.00;;
10497;SDS011;5296;51.060;13.750;2023-07-29T09:04:24;2.08;;;1.10;;
10497;SDS011;5296;51.060;13.750;2023-07-29T09:09:26;0.75;;;0.75;;
10497;SDS011;5296;51.060;13.750;2023-07-29T09:14:28;0.90;;;0.90;;
10497;SDS011;5296;51.060;13.750;2023-07-29T09:19:32;1.20;;;1.10;;
10497;SDS011;5296;51.060;13.750;2023-07-29T09:24:34;1.90;;;1.50;;
10497;SDS011;5296;51.060;13.750;2023-07-29T09:29:36;0.85;;;0.85;;
10497;SDS011;5296;51.060;13.750;2023-07-29T09:34:41;1.92;;;1.65;;
10497;SDS011;5296;51.060;13.750;2023-07-29T09:39:46;3.35;;;1.40;;
10497;SDS011;5296;51.060;13.750;2023-07-29T09:44:49;1.27;;;1.15;;
10497;SDS011;5296;51.060;13.750;2023-07-29T09:49:51;3.30;;;1.40;;
10497;SDS011;5296;51.060;13.750;2023-07-29T09:54:54;5.47;;;1.70;;
10497;SDS011;5296;51.060;13.750;2023-07-29T09:59:56;3.60;;;1.55;;
10497;SDS011;5296;51.060;13.750;2023-07-29T10:04:58;3.00;;;1.55;;
10497;SDS011;5296;51.060;13.750;2023-07-29T10:10:01;1.77;;;1.30;;
10497;SDS011;5296;51.060;13.750;2023-07-29T10:15:05;3.38;;;2.03;;
10497;SDS011;5296;51.060;13.750;2023-07-29T10:20:08;4.18;;;1.90;;
10497;SDS011;5296;51.060;13.750;2023-07-29T10:25:18;2.00;;;1.40;;
10497;SDS011;5296;51.060;13.750;2023-07-29T10:30:24;1.48;;;1.08;;
10497;SDS011;5296;51.060;13.750;2023-07-29T10:35:26;2.00;;;1.20;;
10497;SDS011;5296;51.060;13.750;2023-07-29T10:40:47;3.92;;;1.45;;
10497;SDS011;5296;51.060;13.750;2023-07-29T10:45:53;1.85;;;1.40;;
10497;SDS011;5296;51.060;13.750;2023-07-29T10:51:28;1.13;;;1.10;;
10497;SDS011;5296;51.060;13.750;2023-07-29T10:56:32;1.23;;;1.13;;
10497;SDS011;5296;51.060;13.750;2023-07-29T11:01:35;2.03;;;1.90;;
10497;SDS011;5296;51.060;13.750;2023-07-29T11:17:52;1.25;;;1.15;;
10497;SDS011;5296;51.060;13.750;2023-07-29T11:23:02;1.88;;;1.25;;
10497;SDS011;5296;51.060;13.750;2023-07-29T11:28:04;1.92;;;1.30;;
10497;SDS011;5296;51.060;13.750;2023-07-29T11:33:07;2.08;;;1.40;;
10497;SDS011;5296;51.060;13.750;2023-07-29T11:38:14;2.40;;;1.42;;
10497;SDS011;5296;51.060;13.750;2023-07-29T11:43:19;1.98;;;1.15;;
10497;SDS011;5296;51.060;13.750;2023-07-29T11:48:27;2.95;;;1.20;;
10497;SDS011;5296;51.060;13.750;2023-07-29T11:53:30;1.08;;;1.02;;
10497;SDS011;5296;51.060;13.750;2023-07-29T11:58:32;1.48;;;1.23;;
10497;SDS011;5296;51.060;13.750;2023-07-29T12:03:34;1.58;;;1.40;;
10497;SDS011;5296;51.060;13.750;2023-07-29T12:08:36;1.20;;;1.10;;
10497;SDS011;5296;51.060;13.750;2023-07-29T12:13:38;1.45;;;1.20;;
10497;SDS011;5296;51.060;13.750;2023-07-29T12:18:39;2.85;;;1.70;;
10497;SDS011;5296;51.060;13.750;2023-07-29T12:23:41;2.38;;;1.42;;
10497;SDS011;5296;51.060;13.750;2023-07-29T12:28:46;1.30;;;1.13;;
10497;SDS011;5296;51.060;13.750;2023-07-29T12:33:49;1.48;;;1.10;;
10497;SDS011;5296;51.060;13.750;2023-07-29T12:38:59;1.10;;;1.10;;
10497;SDS011;5296;51.060;13.750;2023-07-29T12:44:01;2.15;;;1.05;;
10497;SDS011;5296;51.060;13.750;2023-07-29T12:49:02;2.08;;;1.42;;
10497;SDS011;5296;51.060;13.750;2023-07-29T12:54:04;1.95;;;1.35;;
10497;SDS011;5296;51.060;13.750;2023-07-29T12:59:06;0.90;;;0.90;;
10497;SDS011;5296;51.060;13.750;2023-07-29T13:04:09;1.10;;;1.00;;
10497;SDS011;5296;51.060;13.750;2023-07-29T13:09:11;1.73;;;1.20;;
10497;SDS011;5296;51.060;13.750;2023-07-29T13:14:13;1.77;;;1.20;;
10497;SDS011;5296;51.060;13.750;2023-07-29T13:19:14;1.33;;;1.23;;
10497;SDS011;5296;51.060;13.750;2023-07-29T13:24:16;2.08;;;1.40;;
10497;SDS011;5296;51.060;13.750;2023-07-29T13:29:18;1.20;;;1.20;;
10497;SDS011;5296;51.060;13.750;2023-07-29T13:34:19;2.20;;;1.30;;
10497;SDS011;5296;51.060;13.750;2023-07-29T13:39:21;1.85;;;1.20;;
10497;SDS011;5296;51.060;13.750;2023-07-29T13:44:23;1.65;;;1.35;;
10497;SDS011;5296;51.060;13.750;2023-07-29T13:49:24;2.22;;;1.40;;
10497;SDS011;5296;51.060;13.750;2023-07-29T13:54:26;1.75;;;1.20;;
10497;SDS011;5296;51.060;13.750;2023-07-29T13:59:30;1.42;;;1.20;;
10497;SDS011;5296;51.060;13.750;2023-07-29T14:04:32;1.50;;;1.23;;
10497;SDS011;5296;51.060;13.750;2023-07-29T14:09:34;1.38;;;1.25;;
10497;SDS011;5296;51.060;13.750;2023-07-29T14:14:36;1.30;;;1.20;;
10497;SDS011;5296;51.060;13.750;2023-07-29T14:19:37;1.60;;;1.08;;
10497;SDS011;5296;51.060;13.750;2023-07-29T14:24:39;2.42;;;1.10;;
10497;SDS011;5296;51.060;13.750;2023-07-29T14:29:41;0.90;;;0.90;;
10497;SDS011;5296;51.060;13.750;2023-07-29T14:34:43;3.67;;;1.50;;
10497;SDS011;5296;51.060;13.750;2023-07-29T14:39:44;2.08;;;1.10;;
10497;SDS011;5296;51.060;13.750;2023-07-29T14:44:46;3.08;;;1.23;;
10497;SDS011;5296;51.060;13.750;2023-07-29T14:49:48;2.67;;;1.10;;
10497;SDS011;5296;51.060;13.750;2023-07-29T14:54:50;1.55;;;1.08;;
10497;SDS011;5296;51.060;13.750;2023-07-29T14:59:51;1.83;;;1.13;;
10497;SDS011;5296;51.060;13.750;2023-07-29T15:04:53;0.90;;;0.90;;
10497;SDS011;5296;51.060;13.750;2023-07-29T15:09:55;1.25;;;1.15;;
10497;SDS011;5296;51.060;13.750;2023-07-29T15:14:57;1.90;;;1.05;;
10497;SDS011;5296;51.060;13.750;2023-07-29T15:19:59;1.00;;;1.00;;
10497;SDS011;5296;51.060;13.750;2023-07-29T15:25:01;1.17;;;0.90;;
10497;SDS011;5296;51.060;13.750;2023-07-29T15:30:02;1.10;;;1.00;;
10497;SDS011;5296;51.060;13.750;2023-07-29T15:35:05;3.05;;;1.10;;
10497;SDS011;5296;51.060;13.750;2023-07-29T15:40:07;0.93;;;0.93;;
10497;SDS011;5296;51.060;13.750;2023-07-29T15:45:09;1.23;;;1.17;;
10497;SDS011;5296;51.060;13.750;2023-07-29T15:50:11;5.57;;;1.20;;
10497;SDS011;5296;51.060;13.750;2023-07-29T15:55:13;1.33;;;1.23;;
10497;SDS011;5296;51.060;13.750;2023-07-29T16:00:15;1.52;;;1.42;;
10497;SDS011;5296;51.060;13.750;2023-07-29T16:05:17;1.48;;;1.33;;
10497;SDS011;5296;51.060;13.750;2023-07-29T16:10:18;1.65;;;1.27;;
10497;SDS011;5296;51.060;13.750;2023-07-29T16:15:20;1.30;;;1.20;;
10497;SDS011;5296;51.060;13.750;2023-07-29T16:20:22;1.67;;;1.20;;
10497;SDS011;5296;51.060;13.750;2023-07-29T16:25:24;1.75;;;1.10;;
10497;SDS011;5296;51.060;13.750;2023-07-29T16:30:25;1.70;;;1.50;;
10497;SDS011;5296;51.060;13.750;2023-07-29T16:35:27;1.50;;;1.40;;
10497;SDS011;5296;51.060;13.750;2023-07-29T16:40:29;1.50;;;1.40;;
10497;SDS011;5296;51.060;13.750;2023-07-29T16:45:30;2.38;;;1.50;;
10497;SDS011;5296;51.060;13.750;2023-07-29T16:50:32;2.17;;;1.42;;
10497;SDS011;5296;51.060;13.750;2023-07-29T16:55:35;2.65;;;1.55;;
10497;SDS011;5296;51.060;13.750;2023-07-29T17:00:37;4.18;;;1.85;;
10497;SDS011;5296;51.060;13.750;2023-07-29T17:05:39;3.75;;;2.42;;
10497;SDS011;5296;51.060;13.750;2023-07-29T17:10:41;2.90;;;2.03;;
10497;SDS011;5296;51.060;13.750;2023-07-29T17:15:43;5.88;;;2.08;;
10497;SDS011;5296;51.060;13.750;2023-07-29T17:20:44;3.80;;;1.90;;
10497;SDS011;5296;51.060;13.750;2023-07-29T17:25:46;4.97;;;2.00;;
10497;SDS011;5296;51.060;13.750;2023-07-29T17:30:49;2.95;;;1.52;;
10497;SDS011;5296;51.060;13.750;2023-07-29T17:35:52;3.03;;;1.98;;
10497;SDS011;5296;51.060;13.750;2023-07-29T17:40:56;6.95;;;2.38;;
10497;SDS011;5296;51.060;13.750;2023-07-29T17:46:02;2.45;;;1.90;;
10497;SDS011;5296;51.060;13.750;2023-07-29T17:51:04;6.43;;;4.40;;
10497;SDS011;5296;51.060;13.750;2023-07-29T17:56:06;2.65;;;2.45;;
10497;SDS011;5296;51.060;13.750;2023-07-29T18:01:09;3.58;;;2.83;;
10497;SDS011;5296;51.060;13.750;2023-07-29T18:06:14;3.22;;;2.28;;
10497;SDS011;5296;51.060;13.750;2023-07-29T18:11:17;2.55;;;1.83;;
10497;SDS011;5296;51.060;13.750;2023-07-29T18:16:18;2.70;;;2.08;;
10497;SDS011;5296;51.060;13.750;2023-07-29T18:21:21;2.83;;;2.25;;
10497;SDS011;5296;51.060;13.750;2023-07-29T18:26:23;3.22;;;2.15;;
10497;SDS011;5296;51.060;13.750;2023-07-29T18:31:25;2.97;;;2.13;;
10497;SDS011;5296;51.060;13.750;2023-07-29T18:36:27;3.55;;;2.30;;
10497;SDS011;5296;51.060;13.750;2023-07-29T18:41:32;2.85;;;2.35;;
10497;SDS011;5296;51.060;13.750;2023-07-29T18:46:34;3.67;;;2.85;;
10497;SDS011;5296;51.060;13.750;2023-07-29T18:51:36;3.22;;;2.20;;
10497;SDS011;5296;51.060;13.750;2023-07-29T18:56:38;2.25;;;1.85;;
10497;SDS011;5296;51.060;13.750;2023-07-29T19:01:40;2.30;;;2.10;;
10497;SDS011;5296;51.060;13.750;2023-07-29T19:06:41;4.82;;;2.28;;
10497;SDS011;5296;51.060;13.750;2023-07-29T19:11:43;7.10;;;5.80;;
10497;SDS011;5296;51.060;13.750;2023-07-29T19:16:45;4.72;;;2.85;;
10497;SDS011;5296;51.060;13.750;2023-07-29T19:21:47;5.10;;;3.10;;
10497;SDS011;5296;51.060;13.750;2023-07-29T19:26:48;4.03;;;3.65;;
10497;SDS011;5296;51.060;13.750;2023-07-29T19:31:50;5.82;;;3.70;;
10497;SDS011;5296;51.060;13.750;2023-07-29T19:36:52;3.13;;;2.80;;
10497;SDS011;5296;51.060;13.750;2023-07-29T19:41:54;3.58;;;2.15;;
10497;SDS011;5296;51.060;13.750;2023-07-29T19:46:55;3.17;;;2.30;;
10497;SDS011;5296;51.060;13.750;2023-07-29T19:51:57;3.78;;;3.40;;
10497;SDS011;5296;51.060;13.750;2023-07-29T19:57:02;3.40;;;3.10;;
10497;SDS011;5296;51.060;13.750;2023-07-29T20:02:04;3.17;;;2.15;;
10497;SDS011;5296;51.060;13.750;2023-07-29T20:07:06;3.95;;;2.70;;
10497;SDS011;5296;51.060;13.750;2023-07-29T20:12:08;2.97;;;2.50;;
10497;SDS011;5296;51.060;13.750;2023-07-29T20:17:10;4.25;;;2.45;;
10497;SDS011;5296;51.060;13.750;2023-07-29T20:22:11;4.68;;;3.30;;
10497;SDS011;5296;51.060;13.750;2023-07-29T20:27:13;2.17;;;1.80;;
10497;SDS011;5296;51.060;13.750;2023-07-29T20:32:14;2.53;;;1.88;;
10497;SDS011;5296;51.060;13.750;2023-07-29T20:37:16;3.53;;;2.75;;
10497;SDS011;5296;51.060;13.750;2023-07-29T20:42:18;2.70;;;2.15;;
10497;SDS011;5296;51.060;13.750;2023-07-29T20:47:20;2.97;;;2.40;;
10497;SDS011;5296;51.060;13.750;2023-07-29T20:52:21;3.30;;;2.40;;
10497;SDS011;5296;51.060;13.750;2023-07-29T20:57:23;2.72;;;2.53;;
10497;SDS011;5296;51.060;13.750;2023-07-29T21:02:25;4.20;;;3.85;;
10497;SDS011;5296;51.060;13.750;2023-07-29T21:07:27;13.23;;;11.93;;
10497;SDS011;5296;51.060;13.750;2023-07-29T21:12:28;6.10;;;5.50;;
10497;SDS011;5296;51.060;13.750;2023-07-29T21:17:30;5.32;;;3.83;;
10497;SDS011;5296;51.060;13.750;2023-07-29T21:22:32;4.20;;;3.20;;
10497;SDS011;5296;51.060;13.750;2023-07-29T21:27:33;4.88;;;4.13;;
10497;SDS011;5296;51.060;13.750;2023-07-29T21:32:35;3.50;;;3.20;;
10497;SDS011;5296;51.060;13.750;2023-07-29T21:37:37;6.80;;;4.10;;
10497;SDS011;5296;51.060;13.750;2023-07-29T21:42:38;3.63;;;2.20;;
10497;SDS011;5296;51.060;13.750;2023-07-29T21:47:42;3.22;;;2.72;;
10497;SDS011;5296;51.060;13.750;2023-07-29T21:52:44;4.68;;;3.50;;
10497;SDS011;5296;51.060;13.750;2023-07-29T21:57:45;7.68;;;3.92;;
10497;SDS011;5296;51.060;13.750;2023-07-29T22:02:47;3.17;;;2.47;;
10497;SDS011;5296;51.060;13.750;2023-07-29T22:07:49;2.92;;;2.20;;
10497;SDS011;5296;51.060;13.750;2023-07-29T22:12:51;2.30;;;2.10;;
10497;SDS011;5296;51.060;13.750;2023-07-29T22:17:54;4.88;;;2.03;;
10497;SDS011;5296;51.060;13.750;2023-07-29T22:22:56;2.92;;;2.10;;
10497;SDS011;5296;51.060;13.750;2023-07-29T22:27:57;2.13;;;1.80;;
10497;SDS011;5296;51.060;13.750;2023-07-29T22:32:59;5.13;;;2.10;;
10497;SDS011;5296;51.060;13.750;2023-07-29T22:38:01;2.20;;;1.80;;
10497;SDS011;5296;51.060;13.750;2023-07-29T22:43:03;2.42;;;2.08;;
10497;SDS011;5296;51.060;13.750;2023-07-29T22:48:04;2.15;;;1.90;;
10497;SDS011;5296;51.060;13.750;2023-07-29T22:53:06;2.80;;;2.03;;
10497;SDS011;5296;51.060;13.750;2023-07-29T22:58:08;2.05;;;1.73;;
10497;SDS011;5296;51.060;13.750;2023-07-29T23:03:10;2.60;;;1.95;;
10497;SDS011;5296;51.060;13.750;2023-07-29T23:08:12;2.40;;;2.17;;
10497;SDS011;5296;51.060;13.750;2023-07-29T23:13:14;1.83;;;1.73;;
10497;SDS011;5296;51.060;13.750;2023-07-29T23:18:16;2.58;;;2.10;;
10497;SDS011;5296;51.060;13.750;2023-07-29T23:23:17;2.22;;;2.00;;
10497;SDS011;5296;51.060;13.750;2023-07-29T23:28:19;2.55;;;1.88;;
10497;SDS011;5296;51.060;13.750;2023-07-29T23:33:21;2.05;;;1.95;;
10497;SDS011;5296;51.060;13.750;2023-07-29T23:38:22;3.92;;;2.13;;
10497;SDS011;5296;51.060;13.750;2023-07-29T23:43:24;5.05;;;1.88;;
10497;SDS011;5296;51.060;13.750;2023-07-29T23:48:27;3.30;;;2.25;;
10497;SDS011;5296;51.060;13.750;2023-07-29T23:53:29;3.20;;;2.00;;
10497;SDS011;5296;51.060;13.750;2023-07-29T23:58:31;2.60;;;2.40;;
